Time;durP1;ratioP1;P1;durP2;ratioP2;P2;SDS_P1;SDS_P2;PMS_P1;PMS_P2;Temp;Humidity;BMP_temperature;BMP_pressure;BME280_temperature;BME280_humidity;BME280_pressure;Samples;Min_cycle;Max_cycle;Signal;HPM_P1;HPM_P2
2023/09/20 00:01:49;;;;;;;18.23;9.25;;;;;;;18.18;100.00;98922.03;5182322;27;20416;-62
2023/09/20 00:04:15;;;;;;;10.77;8.90;;;;;;;18.11;100.00;98961.00;5182068;27;20054;-64
2023/09/20 00:06:42;;;;;;;14.55;9.73;;;;;;;17.99;100.00;98978.22;5182501;27;20046;-64
2023/09/20 00:09:08;;;;;;;18.95;10.20;;;;;;;17.99;100.00;98979.00;5181873;27;20053;-63
2023/09/20 00:11:34;;;;;;;25.58;11.63;;;;;;;18.03;100.00;98968.66;5182401;27;20050;-63
2023/09/20 00:14:00;;;;;;;33.90;10.85;;;;;;;17.96;100.00;98956.88;5181940;27;20330;-62
2023/09/20 00:16:28;;;;;;;20.90;15.07;;;;;;;17.86;100.00;98992.69;5182439;27;20368;-64
2023/09/20 00:18:54;;;;;;;14.60;10.25;;;;;;;17.87;100.00;99010.09;5181813;27;20050;-64
2023/09/20 00:21:20;;;;;;;25.30;16.30;;;;;;;17.80;100.00;99010.97;5182031;27;20043;-64
2023/09/20 00:23:46;;;;;;;23.55;10.88;;;;;;;17.80;100.00;99027.63;5181820;27;20069;-64
2023/09/20 00:26:13;;;;;;;19.85;14.93;;;;;;;17.73;100.00;99033.22;5181961;27;20057;-64
2023/09/20 00:28:39;;;;;;;24.98;15.65;;;;;;;17.60;100.00;99046.06;5181999;27;20046;-62
2023/09/20 00:31:08;;;;;;;14.73;10.48;;;;;;;17.60;100.00;99037.75;5181860;27;20069;-63
2023/09/20 00:33:35;;;;;;;16.50;11.25;;;;;;;17.64;100.00;99038.50;5181982;27;20065;-64
2023/09/20 00:36:01;;;;;;;17.13;11.55;;;;;;;17.67;100.00;99032.13;5181512;27;20115;-65
2023/09/20 00:38:27;;;;;;;22.92;11.98;;;;;;;17.68;100.00;99036.47;5181868;27;20141;-65
2023/09/20 00:40:53;;;;;;;19.33;15.80;;;;;;;17.60;100.00;99035.78;5181599;27;20057;-63
2023/09/20 00:43:23;;;;;;;17.40;11.60;;;;;;;17.53;100.00;99037.84;5181925;27;20071;-62
2023/09/20 00:45:49;;;;;;;18.13;11.65;;;;;;;17.57;100.00;99039.38;5181337;27;20191;-63
2023/09/20 00:48:16;;;;;;;26.20;11.52;;;;;;;17.49;100.00;99048.19;5181490;27;20050;-62
2023/09/20 00:50:43;;;;;;;21.60;15.88;;;;;;;17.55;100.00;99038.22;5181359;27;20430;-65
2023/09/20 00:53:11;;;;;;;32.85;12.88;;;;;;;17.56;100.00;99040.56;5181516;27;20049;-63
2023/09/20 00:55:38;;;;;;;30.15;17.38;;;;;;;17.54;100.00;99040.19;5181558;27;20319;-62
2023/09/20 00:58:07;;;;;;;33.05;14.45;;;;;;;17.55;100.00;99046.53;5181397;27;20055;-64
2023/09/20 01:00:36;;;;;;;26.23;17.77;;;;;;;17.56;100.00;99037.81;5181035;27;20050;-63
2023/09/20 01:03:03;;;;;;;22.85;12.07;;;;;;;17.55;100.00;99041.75;5181158;27;20439;-65
2023/09/20 01:05:34;;;;;;;20.85;11.52;;;;;;;17.52;100.00;99033.50;5181546;27;20056;-64
2023/09/20 01:08:01;;;;;;;20.70;16.63;;;;;;;17.48;100.00;99028.00;5180977;27;20053;-64
2023/09/20 01:10:31;;;;;;;22.33;11.88;;;;;;;17.50;100.00;99027.59;5181431;27;20061;-63
2023/09/20 01:12:58;;;;;;;17.70;12.25;;;;;;;17.54;100.00;99029.13;5181020;27;20399;-64
2023/09/20 01:15:26;;;;;;;20.58;11.85;;;;;;;17.55;100.00;99038.22;5181193;27;20053;-65
2023/09/20 01:17:55;;;;;;;17.13;12.07;;;;;;;17.43;100.00;99036.78;5180842;27;20065;-63
2023/09/20 01:20:24;;;;;;;21.10;18.20;;;;;;;17.53;100.00;99040.63;5180880;27;20088;-63
2023/09/20 01:22:51;;;;;;;17.80;12.48;;;;;;;17.45;100.00;99031.59;5181229;27;20050;-62
2023/09/20 01:25:24;;;;;;;18.42;12.55;;;;;;;17.50;100.00;99022.06;5180745;27;20069;-62
2023/09/20 01:27:51;;;;;;;18.02;11.60;;;;;;;17.49;100.00;99020.47;5181115;27;20141;-64
2023/09/20 01:30:18;;;;;;;29.42;14.60;;;;;;;17.43;100.00;99009.06;5180773;27;20368;-64
2023/09/20 01:32:44;;;;;;;31.63;14.60;;;;;;;17.42;100.00;98993.63;5181087;27;20105;-62
2023/09/20 01:35:10;;;;;;;39.50;22.83;;;;;;;17.49;100.00;99009.38;5180628;27;20050;-62
2023/09/20 01:37:36;;;;;;;31.17;13.60;;;;;;;17.44;100.00;99021.72;5181096;27;20056;-63
2023/09/20 01:40:07;;;;;;;26.85;12.77;;;;;;;17.28;100.00;99024.28;5180526;27;20418;-65
2023/09/20 01:42:33;;;;;;;34.15;14.98;;;;;;;17.44;100.00;99030.03;5180705;27;20106;-64
2023/09/20 01:45:00;;;;;;;23.27;12.15;;;;;;;17.01;100.00;99049.09;5180786;27;20065;-63
2023/09/20 01:47:26;;;;;;;24.13;12.48;;;;;;;17.32;100.00;99052.72;5180552;27;20054;-65
2023/09/20 01:49:53;;;;;;;22.05;15.27;;;;;;;17.45;100.00;99073.16;5180810;27;20046;-64
2023/09/20 01:52:19;;;;;;;18.73;11.65;;;;;;;17.51;100.00;99067.97;5180494;27;20074;-63
2023/09/20 01:54:45;;;;;;;18.75;11.02;;;;;;;17.60;100.00;99079.34;5180593;27;20166;-62
2023/09/20 01:57:11;;;;;;;18.10;12.07;;;;;;;17.40;100.00;99082.72;5180370;27;20050;-62
2023/09/20 01:59:37;;;;;;;18.13;11.43;;;;;;;17.46;100.00;99082.25;5180669;27;20141;-62
2023/09/20 02:02:03;;;;;;;23.67;12.88;;;;;;;17.48;100.00;99079.88;5180144;27;20431;-62
2023/09/20 02:04:29;;;;;;;16.27;10.98;;;;;;;17.39;100.00;99083.94;5180641;27;20046;-62
2023/09/20 02:06:57;;;;;;;18.63;11.27;;;;;;;17.42;100.00;99076.75;5180098;27;20061;-63
2023/09/20 02:09:22;;;;;;;16.58;14.68;;;;;;;17.27;100.00;99080.91;5180259;27;20062;-64
2023/09/20 02:11:49;;;;;;;22.30;11.77;;;;;;;17.16;100.00;99081.78;5179314;27;20056;-65
2023/09/20 02:14:16;;;;;;;14.00;10.25;;;;;;;17.29;100.00;99078.47;5179955;27;20415;-63
2023/09/20 02:16:42;;;;;;;24.98;12.02;;;;;;;17.41;100.00;99084.28;5180286;27;20042;-65
2023/09/20 02:19:08;;;;;;;18.63;11.32;;;;;;;17.34;100.00;99078.03;5180077;27;20536;-65
2023/09/20 02:21:33;;;;;;;44.55;22.50;;;;;;;17.38;100.00;99073.25;5180222;27;20054;-65
2023/09/20 02:24:00;;;;;;;25.70;12.90;;;;;;;17.38;100.00;99071.25;5179917;27;20057;-63
2023/09/20 02:26:26;;;;;;;35.78;13.80;;;;;;;17.43;100.00;99075.56;5180131;27;20057;-62
2023/09/20 02:28:52;;;;;;;36.90;14.23;;;;;;;17.45;100.00;99080.69;5179758;27;20101;-62
2023/09/20 02:31:19;;;;;;;23.30;11.65;;;;;;;17.28;100.00;99085.22;5180081;27;20528;-63
2023/09/20 02:33:45;;;;;;;20.88;11.70;;;;;;;17.42;100.00;99079.53;5179693;27;20134;-63
2023/09/20 02:36:11;;;;;;;23.35;18.48;;;;;;;17.41;100.00;99075.97;5180013;27;20046;-62
2023/09/20 02:38:37;;;;;;;24.92;18.45;;;;;;;17.42;100.00;99083.06;5179759;27;20050;-62
2023/09/20 02:41:03;;;;;;;23.98;12.68;;;;;;;17.42;100.00;99088.63;5179784;27;20133;-64
2023/09/20 02:43:29;;;;;;;28.08;13.73;;;;;;;17.39;100.00;99083.13;5179813;27;20050;-65
2023/09/20 02:45:59;;;;;;;38.83;23.17;;;;;;;17.41;100.00;99083.50;5179428;27;20455;-62
2023/09/20 02:48:26;;;;;;;30.15;13.05;;;;;;;17.40;100.00;99079.97;5179749;27;20148;-63
2023/09/20 02:50:52;;;;;;;16.05;11.32;;;;;;;17.42;100.00;99077.53;5179593;27;20355;-63
2023/09/20 02:53:19;;;;;;;15.52;11.68;;;;;;;17.30;100.00;99088.38;5179714;27;20185;-65
2023/09/20 02:55:45;;;;;;;19.38;17.35;;;;;;;17.28;100.00;99072.16;5179377;27;20050;-64
2023/09/20 02:58:12;;;;;;;15.38;10.82;;;;;;;17.19;100.00;99060.78;5179216;27;20423;-62
2023/09/20 03:00:46;;;;;;;16.00;11.10;;;;;;;17.27;100.00;99050.44;5179252;27;20415;-65
2023/09/20 03:03:15;;;;;;;19.42;16.60;;;;;;;17.21;100.00;99049.31;5179738;27;20126;-61
2023/09/20 03:05:41;;;;;;;35.22;14.57;;;;;;;17.10;100.00;99027.25;5179467;27;20132;-63
2023/09/20 03:08:11;;;;;;;24.15;12.68;;;;;;;17.20;100.00;99026.34;5179331;27;20056;-63
2023/09/20 03:10:38;;;;;;;17.15;11.40;;;;;;;17.23;100.00;99028.31;5179156;27;20053;-64
2023/09/20 03:13:05;;;;;;;15.13;11.82;;;;;;;17.29;100.00;99034.94;5179259;27;20065;-63
2023/09/20 03:15:32;;;;;;;19.63;12.02;;;;;;;17.24;100.00;99024.31;5179268;27;20050;-64
2023/09/20 03:18:02;;;;;;;37.97;15.35;;;;;;;17.20;100.00;99031.91;5179151;27;20050;-63
2023/09/20 03:20:32;;;;;;;61.42;27.17;;;;;;;17.24;100.00;99018.78;5179368;27;20121;-64
2023/09/20 03:23:00;;;;;;;22.92;12.95;;;;;;;17.25;100.00;99028.66;5178826;27;20050;-62
2023/09/20 03:25:28;;;;;;;22.20;12.25;;;;;;;17.28;100.00;99033.38;5179317;27;20137;-64
2023/09/20 03:27:55;;;;;;;24.02;18.05;;;;;;;17.28;100.00;99038.91;5178639;27;20046;-64
2023/09/20 03:30:22;;;;;;;48.75;17.85;;;;;;;17.31;100.00;99051.94;5178770;27;20372;-64
2023/09/20 03:32:48;;;;;;;33.60;14.48;;;;;;;17.35;100.00;99044.38;5179064;27;20193;-62
2023/09/20 03:35:14;;;;;;;32.17;14.77;;;;;;;17.35;100.00;99049.13;5178954;27;20059;-65
2023/09/20 03:37:41;;;;;;;22.35;12.85;;;;;;;17.26;100.00;99044.09;5179054;27;20148;-62
2023/09/20 03:40:10;;;;;;;33.42;20.88;;;;;;;17.27;100.00;99025.50;5178648;27;20054;-63
2023/09/20 03:42:39;;;;;;;28.73;13.00;;;;;;;17.26;100.00;99035.78;5179044;27;20050;-64
2023/09/20 03:45:06;;;;;;;27.83;14.00;;;;;;;17.27;100.00;99036.56;5178728;27;20046;-64
2023/09/20 03:47:32;;;;;;;37.42;15.40;;;;;;;17.22;100.00;99023.94;5178956;27;20042;-63
2023/09/20 03:49:58;;;;;;;29.35;20.83;;;;;;;17.21;100.00;99025.16;5178561;27;20438;-64
2023/09/20 03:52:24;;;;;;;36.65;16.90;;;;;;;17.24;100.00;99024.31;5179037;27;20086;-63
2023/09/20 03:54:51;;;;;;;29.20;13.95;;;;;;;17.28;100.00;99025.06;5178485;27;20082;-64
2023/09/20 03:57:18;;;;;;;37.03;16.35;;;;;;;17.32;100.00;99044.41;5178403;27;20469;-63
2023/09/20 03:59:44;;;;;;;44.10;17.98;;;;;;;17.16;100.00;99045.78;5178715;27;20078;-62
2023/09/20 04:02:13;;;;;;;35.88;16.15;;;;;;;17.13;100.00;99015.34;5178622;27;20092;-63
2023/09/20 04:04:40;;;;;;;25.15;14.18;;;;;;;17.22;100.00;99018.41;5178697;27;20054;-65
2023/09/20 04:07:06;;;;;;;16.17;12.25;;;;;;;17.13;100.00;99037.53;5178496;27;20327;-63
2023/09/20 04:09:32;;;;;;;22.60;18.70;;;;;;;17.31;100.00;99057.50;5178485;27;20054;-62
2023/09/20 04:11:59;;;;;;;17.90;12.65;;;;;;;17.08;100.00;99069.19;5178241;27;20110;-64
2023/09/20 04:14:26;;;;;;;19.95;13.07;;;;;;;17.23;100.00;99069.84;5178594;27;20053;-64
2023/09/20 04:16:53;;;;;;;19.88;12.73;;;;;;;17.35;100.00;99068.53;5178345;27;20046;-65
2023/09/20 04:19:19;;;;;;;21.92;13.43;;;;;;;17.40;100.00;99082.72;5178606;27;20054;-62
2023/09/20 04:21:45;;;;;;;38.28;15.85;;;;;;;17.36;100.00;99081.16;5178167;27;20114;-64
2023/09/20 04:24:11;;;;;;;24.70;14.80;;;;;;;17.25;100.00;99075.75;5178514;27;20417;-63
2023/09/20 04:26:37;;;;;;;29.50;14.82;;;;;;;17.29;100.00;99070.19;5178156;27;20091;-62
2023/09/20 04:29:03;;;;;;;24.35;13.57;;;;;;;17.41;100.00;99056.56;5178250;27;20216;-62
2023/09/20 04:31:32;;;;;;;19.85;13.05;;;;;;;17.15;100.00;99063.59;5178198;27;20046;-62
2023/09/20 04:33:58;;;;;;;19.23;13.50;;;;;;;17.26;100.00;99071.00;5178789;27;20050;-64
2023/09/20 04:36:24;;;;;;;23.17;13.20;;;;;;;17.33;100.00;99073.72;5181917;27;20050;-65
2023/09/20 04:38:50;;;;;;;38.28;17.25;;;;;;;17.41;100.00;99081.53;5181591;27;20149;-64
2023/09/20 04:41:17;;;;;;;39.78;25.08;;;;;;;17.33;100.00;99070.94;5181488;27;20069;-64
2023/09/20 04:43:42;;;;;;;58.78;19.17;;;;;;;17.38;100.00;99076.78;5181330;27;20050;-63
2023/09/20 04:46:08;;;;;;;35.78;14.85;;;;;;;17.45;100.00;99072.38;5181645;27;20055;-63
2023/09/20 04:48:35;;;;;;;19.40;13.85;;;;;;;17.48;100.00;99077.88;5181096;27;20133;-62
2023/09/20 04:51:01;;;;;;;40.15;24.45;;;;;;;17.26;100.00;99080.13;5181680;27;20322;-62
2023/09/20 04:53:27;;;;;;;27.88;14.80;;;;;;;17.52;100.00;99080.59;5181151;27;20054;-63
2023/09/20 04:55:53;;;;;;;31.17;16.02;;;;;;;17.50;100.00;99069.16;5181406;27;20300;-64
2023/09/20 04:58:20;;;;;;;25.60;21.70;;;;;;;17.55;100.00;99086.09;5181330;27;20111;-65
2023/09/20 05:00:47;;;;;;;27.92;15.77;;;;;;;17.28;100.00;99096.31;5181226;27;20050;-63
2023/09/20 05:03:15;;;;;;;34.13;25.67;;;;;;;17.54;100.00;99081.00;5181340;27;20061;-64
2023/09/20 05:05:43;;;;;;;41.20;17.85;;;;;;;17.53;100.00;99082.19;5180671;27;20054;-63
2023/09/20 05:08:09;;;;;;;38.40;25.10;;;;;;;17.65;100.00;99092.72;5180702;27;20050;-60
2023/09/20 05:10:35;;;;;;;42.75;16.58;;;;;;;17.70;100.00;99108.91;5180840;27;20046;-62
2023/09/20 05:13:01;;;;;;;33.30;15.65;;;;;;;17.80;100.00;99107.25;5181172;27;20050;-65
2023/09/20 05:15:27;;;;;;;39.53;18.40;;;;;;;17.69;100.00;99115.66;5180310;27;20507;-63
2023/09/20 05:17:53;;;;;;;29.17;16.08;;;;;;;17.75;100.00;99108.44;5180982;27;20059;-63
2023/09/20 05:20:20;;;;;;;23.92;15.27;;;;;;;17.77;100.00;99111.63;5180730;27;20585;-64
2023/09/20 05:22:46;;;;;;;29.83;23.90;;;;;;;17.76;100.00;99112.84;5181110;27;20061;-63
2023/09/20 05:25:12;;;;;;;31.65;14.98;;;;;;;17.75;100.00;99113.22;5180858;27;20078;-62
2023/09/20 05:27:38;;;;;;;39.50;26.02;;;;;;;17.78;100.00;99118.75;5180908;27;20133;-62
2023/09/20 05:30:05;;;;;;;29.15;16.00;;;;;;;17.76;100.00;99121.16;5180134;27;20418;-64
2023/09/20 05:32:31;;;;;;;30.33;17.17;;;;;;;17.81;100.00;99111.59;5180425;27;20105;-61
2023/09/20 05:34:57;;;;;;;41.70;29.95;;;;;;;17.79;100.00;99109.25;5180026;27;20050;-61
2023/09/20 05:37:23;;;;;;;35.92;20.67;;;;;;;17.83;100.00;99107.19;5180480;27;20394;-61
2023/09/20 05:39:50;;;;;;;44.47;21.38;;;;;;;17.81;100.00;99095.72;5175593;27;20078;-63
2023/09/20 05:42:16;;;;;;;50.53;21.88;;;;;;;17.84;100.00;99097.69;5180527;27;20068;-63
2023/09/20 05:44:42;;;;;;;51.88;23.80;;;;;;;17.87;100.00;99082.19;5180300;27;20052;-63
2023/09/20 05:47:08;;;;;;;64.38;23.30;;;;;;;17.94;100.00;99075.78;5166665;27;20051;-62
2023/09/20 05:49:34;;;;;;;30.33;19.73;;;;;;;17.99;100.00;99070.53;5172001;27;20046;-61
2023/09/20 05:52:02;;;;;;;60.00;41.75;;;;;;;18.05;100.00;99065.31;5177730;27;20081;-61
2023/09/20 05:54:28;;;;;;;45.08;24.60;;;;;;;18.03;100.00;99065.75;5180178;27;20071;-61
2023/09/20 05:56:55;;;;;;;67.40;40.13;;;;;;;18.04;100.00;99047.09;5179799;27;20046;-60
2023/09/20 05:59:22;;;;;;;44.97;23.80;;;;;;;18.03;100.00;99043.53;5179321;27;20050;-60
2023/09/20 06:01:48;;;;;;;53.15;25.45;;;;;;;18.13;100.00;99055.69;5180361;27;20065;-63
2023/09/20 06:04:15;;;;;;;75.60;29.75;;;;;;;18.16;100.00;99056.81;5179751;27;20415;-62
2023/09/20 06:06:41;;;;;;;97.03;33.53;;;;;;;18.28;100.00;99056.25;5180084;27;20050;-64
2023/09/20 06:09:07;;;;;;;68.70;46.35;;;;;;;18.28;100.00;99062.59;5179733;27;20560;-61
2023/09/20 06:11:34;;;;;;;82.93;34.72;;;;;;;18.38;100.00;99060.84;5180169;27;20088;-62
2023/09/20 06:14:01;;;;;;;81.03;54.00;;;;;;;18.39;100.00;99067.19;5179844;27;20050;-63
2023/09/20 06:16:27;;;;;;;68.80;33.03;;;;;;;18.40;100.00;99058.47;5179720;27;20086;-62
2023/09/20 06:18:53;;;;;;;70.15;44.85;;;;;;;18.54;100.00;99074.88;5179286;27;20085;-62
2023/09/20 06:21:19;;;;;;;67.78;33.03;;;;;;;18.59;100.00;99081.94;5178966;27;20482;-64
2023/09/20 06:23:44;;;;;;;67.97;31.70;;;;;;;18.69;100.00;99088.53;5179500;27;20088;-65
2023/09/20 06:26:12;;;;;;;51.70;30.05;;;;;;;18.66;100.00;99095.72;5178951;27;20054;-64
2023/09/20 06:28:40;;;;;;;71.55;33.20;;;;;;;18.77;100.00;99099.13;5179480;27;20056;-63
2023/09/20 06:31:07;;;;;;;51.40;39.88;;;;;;;18.89;100.00;99113.63;5179671;27;20317;-61
2023/09/20 06:33:33;;;;;;;50.80;25.55;;;;;;;18.90;100.00;99112.44;5179803;27;20055;-61
2023/09/20 06:35:59;;;;;;;56.35;24.73;;;;;;;18.98;100.00;99106.31;5179600;27;20054;-62
2023/09/20 06:38:25;;;;;;;35.55;20.85;;;;;;;18.98;100.00;99109.09;5178671;27;20301;-62
2023/09/20 06:40:52;;;;;;;45.13;22.30;;;;;;;19.20;100.00;99123.41;5179371;27;20046;-61
2023/09/20 06:43:18;;;;;;;47.33;22.40;;;;;;;19.34;100.00;99130.69;5179587;27;20050;-63
2023/09/20 06:45:49;;;;;;;43.63;21.42;;;;;;;19.33;100.00;99156.94;5179208;27;20061;-62
2023/09/20 06:48:20;;;;;;;34.15;19.95;;;;;;;19.40;100.00;99156.03;5179597;27;20050;-63
2023/09/20 06:50:48;;;;;;;42.08;20.42;;;;;;;19.44;100.00;99170.63;5179114;27;20387;-63
2023/09/20 06:53:14;;;;;;;30.92;17.58;;;;;;;19.26;100.00;99180.09;5179138;27;20050;-61
2023/09/20 06:55:40;;;;;;;26.83;17.55;;;;;;;19.35;100.00;99187.06;5179290;27;20144;-62
2023/09/20 06:58:07;;;;;;;37.28;18.83;;;;;;;19.34;100.00;99193.84;5178344;27;20058;-63
2023/09/20 07:00:35;;;;;;;26.48;14.30;;;;;;;19.41;100.00;99196.50;5179459;27;20130;-61
2023/09/20 07:03:02;;;;;;;29.05;15.32;;;;;;;19.75;100.00;99057.25;5178938;27;20378;-61
2023/09/20 07:05:30;;;;;;;23.00;20.58;;;;;;;19.45;100.00;99169.44;5179277;27;20046;-60
2023/09/20 07:07:56;;;;;;;23.88;14.43;;;;;;;19.56;100.00;99205.38;5178714;27;20050;-61
2023/09/20 07:10:22;;;;;;;24.13;14.18;;;;;;;19.52;100.00;99206.22;5179223;27;20127;-61
2023/09/20 07:12:49;;;;;;;20.90;18.70;;;;;;;19.34;100.00;99208.53;5178761;27;20129;-61
2023/09/20 07:15:16;;;;;;;23.23;12.75;;;;;;;19.42;100.00;99226.66;5178303;27;20094;-63
2023/09/20 07:17:42;;;;;;;25.90;12.88;;;;;;;19.15;100.00;99210.03;5178170;27;20361;-61
2023/09/20 07:20:14;;;;;;;20.67;16.90;;;;;;;19.26;100.00;99207.88;5178842;27;20476;-62
2023/09/20 07:22:42;;;;;;;21.67;13.45;;;;;;;19.22;100.00;99212.69;5178697;27;20050;-62
2023/09/20 07:25:16;;;;;;;21.35;12.52;;;;;;;19.43;100.00;99216.34;5178360;27;20142;-59
2023/09/20 07:27:42;;;;;;;;;;;;;;;19.49;100.00;99215.44;5179423;27;20057;-59
2023/09/20 07:30:14;;;;;;;21.85;13.13;;;;;;;19.57;100.00;99215.31;5178571;27;20296;-60
2023/09/20 07:32:40;;;;;;;23.05;17.08;;;;;;;19.51;100.00;99226.91;5178964;27;20356;-59
2023/09/20 07:35:19;;;;;;;18.45;10.55;;;;;;;19.46;100.00;99219.06;5178485;27;20064;-62
2023/09/20 07:37:47;;;;;;;19.38;10.30;;;;;;;19.46;100.00;99223.81;5178805;27;20046;-63
2023/09/20 07:40:13;;;;;;;17.23;10.57;;;;;;;19.51;100.00;99217.78;5178647;27;20050;-61
2023/09/20 07:42:40;;;;;;;19.20;10.55;;;;;;;19.79;100.00;99215.72;5178466;27;20490;-59
2023/09/20 07:45:12;;;;;;;20.73;11.23;;;;;;;19.75;100.00;99208.22;5178355;27;20053;-62
2023/09/20 07:47:39;;;;;;;16.73;9.82;;;;;;;19.50;100.00;99200.31;5178210;27;20050;-58
2023/09/20 07:50:07;;;;;;;21.27;9.95;;;;;;;19.83;100.00;99166.38;5178359;27;20052;-60
2023/09/20 07:52:35;;;;;;;19.77;9.27;;;;;;;19.88;100.00;99143.59;5178227;27;20050;-60
2023/09/20 07:55:04;;;;;;;18.70;10.90;;;;;;;19.90;100.00;99150.31;5178574;27;20081;-62
2023/09/20 07:57:30;;;;;;;13.48;9.05;;;;;;;19.79;100.00;99138.59;5178083;27;20050;-60
2023/09/20 07:59:59;;;;;;;14.05;9.43;;;;;;;20.14;100.00;99106.47;5178563;27;20078;-59
2023/09/20 08:02:25;;;;;;;15.20;10.02;;;;;;;20.29;100.00;99086.66;5178095;27;20409;-61
2023/09/20 08:04:52;;;;;;;16.92;9.65;;;;;;;20.47;100.00;99080.72;5178312;27;20047;-61
2023/09/20 08:07:18;;;;;;;21.55;10.45;;;;;;;20.72;100.00;99021.63;5178158;27;20173;-59
2023/09/20 08:09:44;;;;;;;13.68;8.45;;;;;;;20.71;100.00;98931.72;5179809;27;20342;-59
2023/09/20 08:12:11;;;;;;;21.15;9.07;;;;;;;21.14;100.00;98697.16;5181848;27;20460;-59
2023/09/20 08:14:37;;;;;;;14.30;8.75;;;;;;;20.96;100.00;98542.91;5181786;27;20376;-62
2023/09/20 08:19:49;;;;;;;14.20;8.73;;;;;;;22.91;100.00;98067.22;5181505;27;20075;-62
2023/09/20 08:22:17;;;;;;;21.48;8.18;;;;;;;23.53;100.00;97869.13;5181884;27;20041;-61
2023/09/20 09:00:39;;;;;;;16.70;6.53;;;;;;;21.71;100.00;97871.59;5180791;27;20457;-60
2023/09/20 09:03:05;;;;;;;23.55;7.55;;;;;;;21.68;100.00;97938.72;5181311;27;20050;-62
2023/09/20 09:05:32;;;;;;;32.42;9.23;;;;;;;21.91;100.00;97977.06;5180949;27;20057;-62
2023/09/20 09:08:00;;;;;;;12.85;6.05;;;;;;;21.48;100.00;97861.16;5180594;27;20050;-63
2023/09/20 09:10:26;;;;;;;32.72;9.13;;;;;;;21.76;100.00;97872.97;5181133;27;20081;-67
2023/09/20 09:12:52;;;;;;;11.40;6.10;;;;;;;21.97;100.00;97896.28;5180744;27;20046;-59
2023/09/20 09:15:18;;;;;;;8.43;5.95;;;;;;;21.76;100.00;97953.84;5180765;27;20050;-65
2023/09/20 09:17:46;;;;;;;12.40;6.38;;;;;;;22.33;100.00;97903.72;5180660;27;20464;-60
2023/09/20 09:20:13;;;;;;;10.70;6.13;;;;;;;22.65;100.00;97865.00;5180644;27;20357;-60
2023/09/20 09:22:39;;;;;;;9.23;6.93;;;;;;;22.68;100.00;97872.41;5180708;27;20058;-55
2023/09/20 09:25:10;;;;;;;10.85;7.13;;;;;;;22.98;100.00;97832.13;5180844;27;20052;-65
2023/09/20 09:27:37;;;;;;;13.35;7.32;;;;;;;23.01;100.00;97819.22;5180097;27;20050;-64
2023/09/20 09:30:04;;;;;;;12.55;6.13;;;;;;;23.47;100.00;97816.66;5180712;27;20077;-57
2023/09/20 09:32:36;;;;;;;15.32;6.70;;;;;;;23.38;100.00;97805.59;5180114;27;20132;-60
2023/09/20 09:35:05;;;;;;;15.23;7.75;;;;;;;23.70;100.00;97823.41;5180316;27;20404;-63
2023/09/20 09:37:32;;;;;;;27.90;9.27;;;;;;;23.92;100.00;97822.16;5180302;27;20054;-57
2023/09/20 09:40:01;;;;;;;12.55;7.78;;;;;;;23.83;100.00;97808.31;5180189;27;20046;-60
2023/09/20 09:42:28;;;;;;;16.48;9.40;;;;;;;23.80;100.00;97834.47;5180325;27;20042;-64
2023/09/20 09:44:55;;;;;;;13.57;10.65;;;;;;;23.85;100.00;97828.94;5180153;27;20054;-65
2023/09/20 09:47:22;;;;;;;16.33;8.05;;;;;;;23.57;100.00;97831.31;5180595;27;20054;-63
2023/09/20 09:49:49;;;;;;;11.25;9.55;;;;;;;23.20;100.00;97830.97;5180060;27;20061;-66
2023/09/20 09:52:16;;;;;;;12.73;7.30;;;;;;;22.34;100.00;97834.69;5180399;27;20050;-63
2023/09/20 09:54:44;;;;;;;13.75;6.97;;;;;;;22.79;100.00;97816.75;5180011;27;20137;-65
2023/09/20 09:57:10;;;;;;;22.55;8.70;;;;;;;23.07;100.00;97833.28;5180521;27;20057;-65
2023/09/20 09:59:37;;;;;;;15.70;9.98;;;;;;;22.58;100.00;97823.47;5179910;27;20114;-64
2023/09/20 10:02:12;;;;;;;20.13;9.40;;;;;;;22.83;100.00;97828.53;5180240;27;20046;-61
2023/09/20 10:04:39;;;;;;;13.32;7.80;;;;;;;23.03;100.00;97830.69;5179999;27;20133;-63
2023/09/20 10:07:09;;;;;;;13.68;7.97;;;;;;;23.09;100.00;97839.94;5179939;27;20053;-64
2023/09/20 10:09:41;;;;;;;15.48;11.18;;;;;;;22.36;100.00;97840.53;5179676;27;20061;-63
2023/09/20 10:12:08;;;;;;;15.98;8.00;;;;;;;22.65;100.00;97839.84;5179902;27;20054;-62
2023/09/20 10:14:37;;;;;;;15.60;7.65;;;;;;;22.61;100.00;97839.28;5180030;27;20102;-61
2023/09/20 10:17:06;;;;;;;20.70;8.55;;;;;;;23.01;100.00;97830.38;5179773;27;20200;-61
2023/09/20 10:19:32;;;;;;;12.60;7.10;;;;;;;22.21;100.00;97837.72;5179570;27;20046;-63
2023/09/20 10:22:08;;;;;;;14.95;8.00;;;;;;;22.58;100.00;97838.22;5179423;27;20061;-63
2023/09/20 10:24:47;;;;;;;14.10;8.35;;;;;;;22.44;100.00;97838.94;5179356;27;20057;-65
2023/09/20 10:27:17;;;;;;;18.73;10.00;;;;;;;22.58;100.00;97843.03;5179852;27;20358;-69
2023/09/20 10:29:59;;;;;;;13.60;7.70;;;;;;;22.78;100.00;97843.16;5179575;27;20061;-66
2023/09/20 10:32:28;;;;;;;15.10;7.97;;;;;;;22.95;100.00;97843.50;5178645;27;20046;-65
2023/09/20 10:35:21;;;;;;;27.13;11.77;;;;;;;22.86;100.00;97837.94;5179287;27;20047;-64
2023/09/20 10:37:59;;;;;;;14.25;10.25;;;;;;;22.32;100.00;97846.31;5179703;27;20046;-66
2023/09/20 10:40:57;;;;;;;22.98;8.70;;;;;;;22.39;100.00;97864.72;5179346;27;20337;-66
2023/09/20 10:43:41;;;;;;;13.20;8.43;;;;;;;22.38;100.00;97905.84;5179086;27;20419;-66
2023/09/20 10:46:09;;;;;;;14.23;7.32;;;;;;;22.52;100.00;97898.75;5179508;27;20458;-66
2023/09/20 10:48:40;;;;;;;19.52;8.35;;;;;;;22.56;100.00;97891.00;5179057;27;20441;-63
2023/09/20 10:51:07;;;;;;;12.05;10.30;;;;;;;22.45;100.00;97901.91;5180127;27;20098;-62
2023/09/20 10:53:55;;;;;;;14.35;8.30;;;;;;;22.33;100.00;97926.06;5179220;27;20098;-63
2023/09/20 10:56:54;;;;;;;14.75;8.77;;;;;;;22.36;100.00;97955.81;5179781;27;20054;-62
2023/09/20 10:59:21;;;;;;;15.20;8.45;;;;;;;21.78;100.00;97968.88;5170545;27;20081;-67
2023/09/20 11:01:50;;;;;;;12.70;8.23;;;;;;;22.09;100.00;97953.88;5179828;27;20065;-64
2023/09/20 11:04:16;;;;;;;20.50;9.23;;;;;;;22.38;100.00;97963.72;5180270;27;20046;-62
2023/09/20 11:06:45;;;;;;;12.35;8.38;;;;;;;22.11;100.00;97887.22;5178831;27;20069;-63
2023/09/20 11:09:12;;;;;;;11.13;7.20;;;;;;;21.92;100.00;97902.50;5179215;27;20054;-64
2023/09/20 11:11:38;;;;;;;9.32;6.85;;;;;;;22.00;100.00;97929.59;5178934;27;20117;-63
2023/09/20 11:14:06;;;;;;;20.20;9.55;;;;;;;22.29;100.00;97889.94;5179169;27;20070;-69
2023/09/20 11:16:31;;;;;;;15.10;8.18;;;;;;;22.16;100.00;97857.91;5179146;27;20050;-63
2023/09/20 11:18:58;;;;;;;15.27;8.02;;;;;;;22.16;100.00;97888.59;5178705;27;20103;-66
2023/09/20 11:21:25;;;;;;;16.55;7.72;;;;;;;22.40;100.00;97883.81;5179022;27;20424;-64
2023/09/20 11:23:51;;;;;;;13.18;7.80;;;;;;;22.36;100.00;97866.47;5178925;27;20186;-63
2023/09/20 11:26:26;;;;;;;21.35;9.75;;;;;;;22.23;100.00;97863.91;5179072;27;20105;-63
2023/09/20 11:28:52;;;;;;;11.98;9.80;;;;;;;22.16;100.00;97860.69;5178615;27;20060;-61
2023/09/20 11:31:26;;;;;;;8.73;6.97;;;;;;;22.24;100.00;97865.44;5179020;27;20149;-65
2023/09/20 11:33:57;;;;;;;16.00;7.40;;;;;;;22.76;100.00;97840.09;5178725;27;20056;-61
2023/09/20 11:36:23;;;;;;;13.52;7.30;;;;;;;22.66;100.00;97844.19;5178657;27;20054;-65
2023/09/20 11:38:50;;;;;;;10.00;8.88;;;;;;;22.92;100.00;97831.22;5178467;27;20141;-67
2023/09/20 11:41:16;;;;;;;16.95;9.60;;;;;;;23.07;100.00;97836.84;5178420;27;20486;-63
2023/09/20 11:43:45;;;;;;;17.95;7.85;;;;;;;23.09;100.00;97839.16;5180398;27;20046;-62
2023/09/20 11:46:11;;;;;;;10.50;8.90;;;;;;;23.19;100.00;97837.78;5181573;27;20088;-65
2023/09/20 11:48:38;;;;;;;13.25;7.60;;;;;;;23.00;100.00;97843.59;5182206;27;20054;-63
2023/09/20 11:51:04;;;;;;;12.00;7.55;;;;;;;22.95;100.00;97840.69;5182333;27;20054;-61
2023/09/20 11:53:32;;;;;;;15.68;7.85;;;;;;;23.05;100.00;97847.72;5182273;27;20046;-63